sensor_id;sensor_type;location;lat;lon;timestamp;P1;durP1;ratioP1;P2;durP2;ratioP2
10469;SDS011;5282;47.052;15.458;2022-11-15T00:00:07;76.93;;;44.03;;
10469;SDS011;5282;47.052;15.458;2022-11-15T00:02:35;81.10;;;44.40;;
10469;SDS011;5282;47.052;15.458;2022-11-15T00:05:03;83.87;;;44.13;;
10469;SDS011;5282;47.052;15.458;2022-11-15T00:07:31;80.67;;;45.00;;
10469;SDS011;5282;47.052;15.458;2022-11-15T00:09:58;74.10;;;42.73;;
10469;SDS011;5282;47.052;15.458;2022-11-15T00:12:26;75.20;;;43.27;;
10469;SDS011;5282;47.052;15.458;2022-11-15T00:14:54;77.47;;;44.37;;
10469;SDS011;5282;47.052;15.458;2022-11-15T00:17:21;76.43;;;43.10;;
10469;SDS011;5282;47.052;15.458;2022-11-15T00:19:49;75.87;;;43.57;;
10469;SDS011;5282;47.052;15.458;2022-11-15T00:22:16;75.77;;;43.30;;
10469;SDS011;5282;47.052;15.458;2022-11-15T00:24:44;77.43;;;42.83;;
10469;SDS011;5282;47.052;15.458;2022-11-15T00:27:11;77.10;;;44.00;;
10469;SDS011;5282;47.052;15.458;2022-11-15T00:29:38;74.30;;;42.27;;
10469;SDS011;5282;47.052;15.458;2022-11-15T00:32:08;78.23;;;44.07;;
10469;SDS011;5282;47.052;15.458;2022-11-15T00:34:35;70.33;;;41.90;;
10469;SDS011;5282;47.052;15.458;2022-11-15T00:37:03;73.50;;;42.33;;
10469;SDS011;5282;47.052;15.458;2022-11-15T00:39:30;78.27;;;43.50;;
10469;SDS011;5282;47.052;15.458;2022-11-15T00:41:58;72.07;;;42.70;;
10469;SDS011;5282;47.052;15.458;2022-11-15T00:44:27;70.13;;;41.90;;
10469;SDS011;5282;47.052;15.458;2022-11-15T00:46:54;71.97;;;42.80;;
10469;SDS011;5282;47.052;15.458;2022-11-15T00:49:21;71.47;;;43.00;;
10469;SDS011;5282;47.052;15.458;2022-11-15T00:51:48;76.07;;;45.53;;
10469;SDS011;5282;47.052;15.458;2022-11-15T00:54:15;74.00;;;43.30;;
10469;SDS011;5282;47.052;15.458;2022-11-15T00:56:42;72.47;;;42.13;;
10469;SDS011;5282;47.052;15.458;2022-11-15T00:59:11;72.87;;;43.23;;
10469;SDS011;5282;47.052;15.458;2022-11-15T01:01:38;73.93;;;43.03;;
10469;SDS011;5282;47.052;15.458;2022-11-15T01:04:05;73.70;;;42.17;;
10469;SDS011;5282;47.052;15.458;2022-11-15T01:06:32;76.60;;;44.13;;
10469;SDS011;5282;47.052;15.458;2022-11-15T01:08:58;79.80;;;43.63;;
10469;SDS011;5282;47.052;15.458;2022-11-15T01:11:25;75.20;;;43.33;;
10469;SDS011;5282;47.052;15.458;2022-11-15T01:13:53;79.23;;;44.13;;
10469;SDS011;5282;47.052;15.458;2022-11-15T01:16:22;78.13;;;44.33;;
10469;SDS011;5282;47.052;15.458;2022-11-15T01:18:50;74.43;;;43.60;;
10469;SDS011;5282;47.052;15.458;2022-11-15T01:21:17;70.37;;;42.07;;
10469;SDS011;5282;47.052;15.458;2022-11-15T01:23:45;75.57;;;43.53;;
10469;SDS011;5282;47.052;15.458;2022-11-15T01:26:13;78.20;;;43.40;;
10469;SDS011;5282;47.052;15.458;2022-11-15T01:28:41;77.00;;;44.27;;
10469;SDS011;5282;47.052;15.458;2022-11-15T01:31:10;80.80;;;44.10;;
10469;SDS011;5282;47.052;15.458;2022-11-15T01:33:40;73.33;;;42.83;;
10469;SDS011;5282;47.052;15.458;2022-11-15T01:36:09;76.33;;;44.10;;
10469;SDS011;5282;47.052;15.458;2022-11-15T01:38:39;74.23;;;42.87;;
10469;SDS011;5282;47.052;15.458;2022-11-15T01:41:06;80.97;;;45.33;;
10469;SDS011;5282;47.052;15.458;2022-11-15T01:43:39;75.63;;;44.00;;
10469;SDS011;5282;47.052;15.458;2022-11-15T01:46:09;80.50;;;44.30;;
10469;SDS011;5282;47.052;15.458;2022-11-15T01:48:51;77.67;;;42.90;;
10469;SDS011;5282;47.052;15.458;2022-11-15T01:51:23;83.63;;;44.63;;
10469;SDS011;5282;47.052;15.458;2022-11-15T01:53:54;86.97;;;45.17;;
10469;SDS011;5282;47.052;15.458;2022-11-15T01:56:24;85.87;;;46.13;;
10469;SDS011;5282;47.052;15.458;2022-11-15T01:58:55;85.73;;;45.00;;
10469;SDS011;5282;47.052;15.458;2022-11-15T02:01:24;94.93;;;47.90;;
10469;SDS011;5282;47.052;15.458;2022-11-15T02:03:55;90.37;;;47.83;;
10469;SDS011;5282;47.052;15.458;2022-11-15T02:06:25;101.87;;;48.77;;
10469;SDS011;5282;47.052;15.458;2022-11-15T02:08:52;92.50;;;48.00;;
10469;SDS011;5282;47.052;15.458;2022-11-15T02:11:20;89.80;;;47.33;;
10469;SDS011;5282;47.052;15.458;2022-11-15T02:13:47;102.27;;;49.67;;
10469;SDS011;5282;47.052;15.458;2022-11-15T02:16:16;91.23;;;47.57;;
10469;SDS011;5282;47.052;15.458;2022-11-15T02:18:52;91.30;;;47.30;;
10469;SDS011;5282;47.052;15.458;2022-11-15T02:21:26;98.10;;;48.53;;
10469;SDS011;5282;47.052;15.458;2022-11-15T02:24:09;88.40;;;45.27;;
10469;SDS011;5282;47.052;15.458;2022-11-15T02:27:04;93.50;;;47.17;;
10469;SDS011;5282;47.052;15.458;2022-11-15T02:29:50;94.03;;;47.97;;
10469;SDS011;5282;47.052;15.458;2022-11-15T02:32:35;89.70;;;45.17;;
10469;SDS011;5282;47.052;15.458;2022-11-15T02:35:10;82.67;;;44.93;;
10469;SDS011;5282;47.052;15.458;2022-11-15T02:37:44;81.67;;;43.13;;
10469;SDS011;5282;47.052;15.458;2022-11-15T02:40:21;77.73;;;42.33;;
10469;SDS011;5282;47.052;15.458;2022-11-15T02:42:55;74.57;;;41.17;;
10469;SDS011;5282;47.052;15.458;2022-11-15T02:45:44;79.47;;;42.57;;
10469;SDS011;5282;47.052;15.458;2022-11-15T02:48:16;76.93;;;42.10;;
10469;SDS011;5282;47.052;15.458;2022-11-15T02:50:44;83.33;;;43.70;;
10469;SDS011;5282;47.052;15.458;2022-11-15T02:53:12;86.77;;;44.17;;
10469;SDS011;5282;47.052;15.458;2022-11-15T02:55:41;80.10;;;44.37;;
10469;SDS011;5282;47.052;15.458;2022-11-15T02:58:18;81.87;;;44.63;;
10469;SDS011;5282;47.052;15.458;2022-11-15T03:00:59;79.97;;;43.57;;
10469;SDS011;5282;47.052;15.458;2022-11-15T03:03:41;81.23;;;43.40;;
10469;SDS011;5282;47.052;15.458;2022-11-15T03:06:22;81.70;;;43.93;;
10469;SDS011;5282;47.052;15.458;2022-11-15T03:09:02;87.00;;;45.20;;
10469;SDS011;5282;47.052;15.458;2022-11-15T03:11:35;85.43;;;44.63;;
10469;SDS011;5282;47.052;15.458;2022-11-15T03:14:08;88.13;;;45.17;;
10469;SDS011;5282;47.052;15.458;2022-11-15T03:16:47;83.40;;;43.43;;
10469;SDS011;5282;47.052;15.458;2022-11-15T03:19:19;82.07;;;44.63;;
10469;SDS011;5282;47.052;15.458;2022-11-15T03:21:52;89.10;;;45.03;;
10469;SDS011;5282;47.052;15.458;2022-11-15T03:24:23;85.23;;;43.63;;
10469;SDS011;5282;47.052;15.458;2022-11-15T03:26:53;90.87;;;45.87;;
10469;SDS011;5282;47.052;15.458;2022-11-15T03:29:22;89.37;;;46.37;;
10469;SDS011;5282;47.052;15.458;2022-11-15T03:31:53;90.23;;;46.93;;
10469;SDS011;5282;47.052;15.458;2022-11-15T03:34:27;91.63;;;46.40;;
10469;SDS011;5282;47.052;15.458;2022-11-15T03:36:58;88.00;;;45.47;;
10469;SDS011;5282;47.052;15.458;2022-11-15T03:39:25;87.07;;;46.10;;
10469;SDS011;5282;47.052;15.458;2022-11-15T03:41:56;94.47;;;45.93;;
10469;SDS011;5282;47.052;15.458;2022-11-15T03:44:34;94.83;;;46.83;;
10469;SDS011;5282;47.052;15.458;2022-11-15T03:47:08;97.10;;;48.53;;
10469;SDS011;5282;47.052;15.458;2022-11-15T03:49:40;93.60;;;46.40;;
10469;SDS011;5282;47.052;15.458;2022-11-15T03:52:11;88.23;;;46.70;;
10469;SDS011;5282;47.052;15.458;2022-11-15T03:54:47;88.80;;;45.87;;
10469;SDS011;5282;47.052;15.458;2022-11-15T03:57:14;89.27;;;45.83;;
10469;SDS011;5282;47.052;15.458;2022-11-15T03:59:41;93.67;;;46.97;;
10469;SDS011;5282;47.052;15.458;2022-11-15T04:02:08;93.37;;;46.23;;
10469;SDS011;5282;47.052;15.458;2022-11-15T04:04:34;87.83;;;47.07;;
10469;SDS011;5282;47.052;15.458;2022-11-15T04:07:03;89.27;;;44.90;;
10469;SDS011;5282;47.052;15.458;2022-11-15T04:09:30;93.70;;;46.23;;
10469;SDS011;5282;47.052;15.458;2022-11-15T04:11:57;90.63;;;46.00;;
10469;SDS011;5282;47.052;15.458;2022-11-15T04:14:24;88.17;;;45.63;;
10469;SDS011;5282;47.052;15.458;2022-11-15T04:16:50;101.13;;;49.33;;
10469;SDS011;5282;47.052;15.458;2022-11-15T04:19:17;93.30;;;46.23;;
10469;SDS011;5282;47.052;15.458;2022-11-15T04:22:03;91.97;;;45.53;;
10469;SDS011;5282;47.052;15.458;2022-11-15T04:24:47;98.30;;;46.27;;
10469;SDS011;5282;47.052;15.458;2022-11-15T04:27:14;90.33;;;45.40;;
10469;SDS011;5282;47.052;15.458;2022-11-15T04:29:40;87.17;;;43.70;;
10469;SDS011;5282;47.052;15.458;2022-11-15T04:32:10;96.73;;;45.10;;
10469;SDS011;5282;47.052;15.458;2022-11-15T04:34:37;95.83;;;43.63;;
10469;SDS011;5282;47.052;15.458;2022-11-15T04:37:06;96.23;;;45.13;;
10469;SDS011;5282;47.052;15.458;2022-11-15T04:39:39;93.43;;;45.17;;
10469;SDS011;5282;47.052;15.458;2022-11-15T04:42:06;122.93;;;44.90;;
10469;SDS011;5282;47.052;15.458;2022-11-15T04:44:33;112.23;;;45.50;;
10469;SDS011;5282;47.052;15.458;2022-11-15T04:47:01;123.90;;;48.10;;
10469;SDS011;5282;47.052;15.458;2022-11-15T04:49:28;113.83;;;46.20;;
10469;SDS011;5282;47.052;15.458;2022-11-15T04:51:55;97.57;;;45.63;;
10469;SDS011;5282;47.052;15.458;2022-11-15T04:54:23;98.60;;;44.33;;
10469;SDS011;5282;47.052;15.458;2022-11-15T04:56:50;98.20;;;46.70;;
10469;SDS011;5282;47.052;15.458;2022-11-15T04:59:17;95.30;;;45.73;;
10469;SDS011;5282;47.052;15.458;2022-11-15T05:01:44;105.83;;;47.80;;
10469;SDS011;5282;47.052;15.458;2022-11-15T05:04:11;102.53;;;46.27;;
10469;SDS011;5282;47.052;15.458;2022-11-15T05:06:47;102.67;;;46.50;;
10469;SDS011;5282;47.052;15.458;2022-11-15T05:09:15;106.53;;;47.27;;
10469;SDS011;5282;47.052;15.458;2022-11-15T05:11:44;128.20;;;47.70;;
10469;SDS011;5282;47.052;15.458;2022-11-15T05:14:11;110.60;;;47.03;;
10469;SDS011;5282;47.052;15.458;2022-11-15T05:16:41;104.00;;;45.10;;
10469;SDS011;5282;47.052;15.458;2022-11-15T05:19:09;99.03;;;45.23;;
10469;SDS011;5282;47.052;15.458;2022-11-15T05:21:36;96.27;;;46.73;;
10469;SDS011;5282;47.052;15.458;2022-11-15T05:24:03;119.30;;;48.43;;
10469;SDS011;5282;47.052;15.458;2022-11-15T05:26:31;100.00;;;45.23;;
10469;SDS011;5282;47.052;15.458;2022-11-15T05:28:59;106.83;;;47.00;;
10469;SDS011;5282;47.052;15.458;2022-11-15T05:31:26;108.17;;;47.03;;
10469;SDS011;5282;47.052;15.458;2022-11-15T05:33:53;110.30;;;46.50;;
10469;SDS011;5282;47.052;15.458;2022-11-15T05:36:25;109.47;;;49.00;;
10469;SDS011;5282;47.052;15.458;2022-11-15T05:38:55;97.40;;;46.37;;
10469;SDS011;5282;47.052;15.458;2022-11-15T05:41:24;106.67;;;48.03;;
10469;SDS011;5282;47.052;15.458;2022-11-15T05:43:56;106.70;;;48.37;;
10469;SDS011;5282;47.052;15.458;2022-11-15T05:46:25;108.53;;;48.97;;
10469;SDS011;5282;47.052;15.458;2022-11-15T05:48:53;110.70;;;48.23;;
10469;SDS011;5282;47.052;15.458;2022-11-15T05:51:22;111.67;;;47.87;;
10469;SDS011;5282;47.052;15.458;2022-11-15T05:53:50;104.57;;;46.57;;
10469;SDS011;5282;47.052;15.458;2022-11-15T05:56:19;109.73;;;47.37;;
10469;SDS011;5282;47.052;15.458;2022-11-15T05:58:46;103.03;;;46.97;;
10469;SDS011;5282;47.052;15.458;2022-11-15T06:01:13;102.40;;;47.17;;
10469;SDS011;5282;47.052;15.458;2022-11-15T06:03:41;107.90;;;47.43;;
10469;SDS011;5282;47.052;15.458;2022-11-15T06:06:08;99.43;;;46.33;;
10469;SDS011;5282;47.052;15.458;2022-11-15T06:08:35;95.50;;;45.77;;
10469;SDS011;5282;47.052;15.458;2022-11-15T06:11:03;103.90;;;47.30;;
10469;SDS011;5282;47.052;15.458;2022-11-15T06:13:31;96.47;;;45.37;;
10469;SDS011;5282;47.052;15.458;2022-11-15T06:15:58;95.90;;;44.30;;
10469;SDS011;5282;47.052;15.458;2022-11-15T06:18:25;90.60;;;43.00;;
10469;SDS011;5282;47.052;15.458;2022-11-15T06:20:54;91.90;;;42.53;;
10469;SDS011;5282;47.052;15.458;2022-11-15T06:23:25;88.47;;;41.83;;
10469;SDS011;5282;47.052;15.458;2022-11-15T06:25:51;82.00;;;41.97;;
10469;SDS011;5282;47.052;15.458;2022-11-15T06:28:18;80.77;;;40.00;;
10469;SDS011;5282;47.052;15.458;2022-11-15T06:30:45;79.73;;;39.53;;
10469;SDS011;5282;47.052;15.458;2022-11-15T06:33:12;75.37;;;40.20;;
10469;SDS011;5282;47.052;15.458;2022-11-15T06:35:39;75.87;;;40.60;;
10469;SDS011;5282;47.052;15.458;2022-11-15T06:38:08;74.13;;;38.33;;
10469;SDS011;5282;47.052;15.458;2022-11-15T06:40:37;67.77;;;35.80;;
10469;SDS011;5282;47.052;15.458;2022-11-15T06:43:05;66.90;;;36.13;;
10469;SDS011;5282;47.052;15.458;2022-11-15T06:45:32;71.23;;;37.33;;
10469;SDS011;5282;47.052;15.458;2022-11-15T06:47:59;70.73;;;38.00;;
10469;SDS011;5282;47.052;15.458;2022-11-15T06:50:26;72.27;;;35.97;;
10469;SDS011;5282;47.052;15.458;2022-11-15T06:52:53;65.90;;;36.17;;
10469;SDS011;5282;47.052;15.458;2022-11-15T06:55:22;64.90;;;36.90;;
10469;SDS011;5282;47.052;15.458;2022-11-15T06:57:49;62.00;;;34.20;;
10469;SDS011;5282;47.052;15.458;2022-11-15T07:00:18;65.50;;;33.53;;
10469;SDS011;5282;47.052;15.458;2022-11-15T07:02:47;67.77;;;34.67;;
10469;SDS011;5282;47.052;15.458;2022-11-15T07:05:15;63.03;;;34.47;;
10469;SDS011;5282;47.052;15.458;2022-11-15T07:07:42;65.23;;;35.73;;
10469;SDS011;5282;47.052;15.458;2022-11-15T07:10:09;64.63;;;35.83;;
10469;SDS011;5282;47.052;15.458;2022-11-15T07:12:37;62.77;;;34.67;;
10469;SDS011;5282;47.052;15.458;2022-11-15T07:15:05;63.40;;;34.53;;
10469;SDS011;5282;47.052;15.458;2022-11-15T07:17:32;62.30;;;35.43;;
10469;SDS011;5282;47.052;15.458;2022-11-15T07:20:00;59.80;;;34.70;;
10469;SDS011;5282;47.052;15.458;2022-11-15T07:22:26;63.43;;;36.10;;
10469;SDS011;5282;47.052;15.458;2022-11-15T07:24:53;67.57;;;36.43;;
10469;SDS011;5282;47.052;15.458;2022-11-15T07:27:20;64.83;;;36.50;;
10469;SDS011;5282;47.052;15.458;2022-11-15T07:29:49;71.70;;;37.57;;
10469;SDS011;5282;47.052;15.458;2022-11-15T07:32:16;73.13;;;35.73;;
10469;SDS011;5282;47.052;15.458;2022-11-15T07:34:43;68.30;;;35.83;;
10469;SDS011;5282;47.052;15.458;2022-11-15T07:37:11;70.67;;;37.27;;
10469;SDS011;5282;47.052;15.458;2022-11-15T07:39:38;71.60;;;37.50;;
10469;SDS011;5282;47.052;15.458;2022-11-15T07:42:05;69.53;;;37.13;;
10469;SDS011;5282;47.052;15.458;2022-11-15T07:44:51;68.80;;;36.97;;
10469;SDS011;5282;47.052;15.458;2022-11-15T07:47:17;68.80;;;36.37;;
10469;SDS011;5282;47.052;15.458;2022-11-15T07:49:45;70.23;;;36.97;;
10469;SDS011;5282;47.052;15.458;2022-11-15T07:52:12;62.17;;;36.07;;
10469;SDS011;5282;47.052;15.458;2022-11-15T07:54:39;75.90;;;38.77;;
10469;SDS011;5282;47.052;15.458;2022-11-15T07:57:06;73.33;;;38.30;;
10469;SDS011;5282;47.052;15.458;2022-11-15T07:59:34;79.43;;;39.77;;
10469;SDS011;5282;47.052;15.458;2022-11-15T08:02:03;68.40;;;38.77;;
10469;SDS011;5282;47.052;15.458;2022-11-15T08:04:29;82.40;;;40.13;;
10469;SDS011;5282;47.052;15.458;2022-11-15T08:06:56;81.43;;;39.43;;
10469;SDS011;5282;47.052;15.458;2022-11-15T08:09:26;80.67;;;39.57;;
10469;SDS011;5282;47.052;15.458;2022-11-15T08:11:53;79.23;;;39.57;;
10469;SDS011;5282;47.052;15.458;2022-11-15T08:14:20;75.43;;;39.43;;
10469;SDS011;5282;47.052;15.458;2022-11-15T08:16:47;82.13;;;40.10;;
10469;SDS011;5282;47.052;15.458;2022-11-15T08:19:16;81.17;;;40.07;;
10469;SDS011;5282;47.052;15.458;2022-11-15T08:21:42;78.23;;;39.90;;
10469;SDS011;5282;47.052;15.458;2022-11-15T08:24:10;77.03;;;40.43;;
10469;SDS011;5282;47.052;15.458;2022-11-15T08:26:37;83.13;;;42.23;;
10469;SDS011;5282;47.052;15.458;2022-11-15T08:29:04;80.80;;;41.00;;
10469;SDS011;5282;47.052;15.458;2022-11-15T08:31:32;75.43;;;40.43;;
10469;SDS011;5282;47.052;15.458;2022-11-15T08:34:00;85.10;;;40.93;;
10469;SDS011;5282;47.052;15.458;2022-11-15T08:36:28;85.83;;;42.33;;
10469;SDS011;5282;47.052;15.458;2022-11-15T08:38:55;78.63;;;40.17;;
10469;SDS011;5282;47.052;15.458;2022-11-15T08:41:23;83.27;;;41.40;;
10469;SDS011;5282;47.052;15.458;2022-11-15T08:43:55;76.63;;;40.53;;
10469;SDS011;5282;47.052;15.458;2022-11-15T08:46:22;90.33;;;41.57;;
10469;SDS011;5282;47.052;15.458;2022-11-15T08:48:49;90.50;;;42.20;;
10469;SDS011;5282;47.052;15.458;2022-11-15T08:51:16;92.57;;;42.87;;
10469;SDS011;5282;47.052;15.458;2022-11-15T08:53:44;90.30;;;43.70;;
10469;SDS011;5282;47.052;15.458;2022-11-15T08:56:12;90.90;;;41.80;;
10469;SDS011;5282;47.052;15.458;2022-11-15T08:58:40;94.80;;;42.60;;
10469;SDS011;5282;47.052;15.458;2022-11-15T09:01:13;88.43;;;42.50;;
10469;SDS011;5282;47.052;15.458;2022-11-15T09:03:42;87.53;;;43.00;;
10469;SDS011;5282;47.052;15.458;2022-11-15T09:06:09;92.67;;;43.37;;
10469;SDS011;5282;47.052;15.458;2022-11-15T09:08:36;94.60;;;44.67;;
10469;SDS011;5282;47.052;15.458;2022-11-15T09:11:04;87.80;;;43.10;;
10469;SDS011;5282;47.052;15.458;2022-11-15T09:13:32;92.33;;;43.63;;
10469;SDS011;5282;47.052;15.458;2022-11-15T09:16:00;92.57;;;42.40;;
10469;SDS011;5282;47.052;15.458;2022-11-15T09:18:28;90.73;;;43.43;;
10469;SDS011;5282;47.052;15.458;2022-11-15T09:20:55;90.87;;;43.97;;
10469;SDS011;5282;47.052;15.458;2022-11-15T09:23:23;88.20;;;42.33;;
10469;SDS011;5282;47.052;15.458;2022-11-15T09:25:50;95.57;;;42.90;;
10469;SDS011;5282;47.052;15.458;2022-11-15T09:28:18;84.97;;;42.10;;
10469;SDS011;5282;47.052;15.458;2022-11-15T09:30:45;88.90;;;42.47;;
10469;SDS011;5282;47.052;15.458;2022-11-15T09:33:12;99.60;;;45.17;;
10469;SDS011;5282;47.052;15.458;2022-11-15T09:35:39;93.23;;;42.60;;
10469;SDS011;5282;47.052;15.458;2022-11-15T09:38:07;87.40;;;42.50;;
10469;SDS011;5282;47.052;15.458;2022-11-15T09:40:35;94.40;;;42.47;;
10469;SDS011;5282;47.052;15.458;2022-11-15T09:43:06;90.93;;;43.13;;
10469;SDS011;5282;47.052;15.458;2022-11-15T09:45:46;94.23;;;42.87;;
10469;SDS011;5282;47.052;15.458;2022-11-15T09:48:26;99.67;;;43.67;;
10469;SDS011;5282;47.052;15.458;2022-11-15T09:51:04;93.70;;;43.63;;
10469;SDS011;5282;47.052;15.458;2022-11-15T09:53:36;96.93;;;44.50;;
10469;SDS011;5282;47.052;15.458;2022-11-15T09:56:11;94.33;;;42.50;;
10469;SDS011;5282;47.052;15.458;2022-11-15T09:58:43;95.83;;;44.37;;
10469;SDS011;5282;47.052;15.458;2022-11-15T10:01:17;88.70;;;42.87;;
10469;SDS011;5282;47.052;15.458;2022-11-15T10:03:51;82.13;;;42.23;;
10469;SDS011;5282;47.052;15.458;2022-11-15T10:06:22;84.00;;;41.73;;
10469;SDS011;5282;47.052;15.458;2022-11-15T10:08:51;83.77;;;41.43;;
10469;SDS011;5282;47.052;15.458;2022-11-15T10:11:24;80.80;;;41.90;;
10469;SDS011;5282;47.052;15.458;2022-11-15T10:13:54;90.63;;;41.37;;
10469;SDS011;5282;47.052;15.458;2022-11-15T10:16:33;84.83;;;42.40;;
10469;SDS011;5282;47.052;15.458;2022-11-15T10:19:14;84.37;;;42.13;;
10469;SDS011;5282;47.052;15.458;2022-11-15T10:21:52;89.87;;;43.57;;
10469;SDS011;5282;47.052;15.458;2022-11-15T10:24:27;86.70;;;42.03;;
10469;SDS011;5282;47.052;15.458;2022-11-15T10:26:56;82.57;;;40.93;;
10469;SDS011;5282;47.052;15.458;2022-11-15T10:29:24;75.07;;;40.77;;
10469;SDS011;5282;47.052;15.458;2022-11-15T10:31:53;73.20;;;39.07;;
10469;SDS011;5282;47.052;15.458;2022-11-15T10:34:20;76.27;;;38.13;;
10469;SDS011;5282;47.052;15.458;2022-11-15T10:36:53;72.10;;;38.43;;
10469;SDS011;5282;47.052;15.458;2022-11-15T10:39:21;63.10;;;36.57;;
10469;SDS011;5282;47.052;15.458;2022-11-15T10:41:49;64.20;;;35.23;;
10469;SDS011;5282;47.052;15.458;2022-11-15T10:44:20;63.20;;;35.03;;
10469;SDS011;5282;47.052;15.458;2022-11-15T10:49:53;56.97;;;33.17;;
10469;SDS011;5282;47.052;15.458;2022-11-15T10:52:21;60.47;;;34.90;;
10469;SDS011;5282;47.052;15.458;2022-11-15T10:54:50;58.87;;;33.40;;
10469;SDS011;5282;47.052;15.458;2022-11-15T10:57:20;53.80;;;34.27;;
10469;SDS011;5282;47.052;15.458;2022-11-15T10:59:49;56.40;;;33.43;;
10469;SDS011;5282;47.052;15.458;2022-11-15T11:02:34;53.87;;;33.50;;
10469;SDS011;5282;47.052;15.458;2022-11-15T11:05:03;51.07;;;32.50;;
10469;SDS011;5282;47.052;15.458;2022-11-15T11:07:33;52.63;;;34.20;;
10469;SDS011;5282;47.052;15.458;2022-11-15T11:10:02;52.83;;;32.10;;
10469;SDS011;5282;47.052;15.458;2022-11-15T11:12:32;48.07;;;30.77;;
10469;SDS011;5282;47.052;15.458;2022-11-15T11:15:00;51.10;;;31.30;;
10469;SDS011;5282;47.052;15.458;2022-11-15T11:17:41;44.67;;;28.87;;
10469;SDS011;5282;47.052;15.458;2022-11-15T11:20:23;44.37;;;29.40;;
10469;SDS011;5282;47.052;15.458;2022-11-15T11:25:48;40.87;;;28.17;;
10469;SDS011;5282;47.052;15.458;2022-11-15T11:28:23;44.33;;;29.97;;
10469;SDS011;5282;47.052;15.458;2022-11-15T11:31:12;39.60;;;28.53;;
10469;SDS011;5282;47.052;15.458;2022-11-15T11:33:51;42.00;;;28.47;;
10469;SDS011;5282;47.052;15.458;2022-11-15T11:36:27;40.60;;;27.67;;
10469;SDS011;5282;47.052;15.458;2022-11-15T11:39:09;40.63;;;27.83;;
10469;SDS011;5282;47.052;15.458;2022-11-15T11:41:53;42.60;;;27.83;;
10469;SDS011;5282;47.052;15.458;2022-11-15T11:44:33;41.20;;;28.23;;
10469;SDS011;5282;47.052;15.458;2022-11-15T11:47:07;42.20;;;28.93;;
10469;SDS011;5282;47.052;15.458;2022-11-15T11:49:41;38.80;;;27.87;;
10469;SDS011;5282;47.052;15.458;2022-11-15T11:52:14;39.47;;;27.70;;
10469;SDS011;5282;47.052;15.458;2022-11-15T11:54:50;38.93;;;28.30;;
10469;SDS011;5282;47.052;15.458;2022-11-15T11:57:31;43.67;;;29.33;;
10469;SDS011;5282;47.052;15.458;2022-11-15T12:00:04;42.27;;;28.70;;
10469;SDS011;5282;47.052;15.458;2022-11-15T12:02:43;39.73;;;28.13;;
10469;SDS011;5282;47.052;15.458;2022-11-15T12:05:16;36.53;;;26.73;;
10469;SDS011;5282;47.052;15.458;2022-11-15T12:07:49;37.77;;;26.83;;
10469;SDS011;5282;47.052;15.458;2022-11-15T12:10:21;37.93;;;26.23;;
10469;SDS011;5282;47.052;15.458;2022-11-15T12:12:53;34.23;;;25.13;;
10469;SDS011;5282;47.052;15.458;2022-11-15T12:15:26;33.83;;;24.40;;
10469;SDS011;5282;47.052;15.458;2022-11-15T12:17:56;35.43;;;24.70;;
10469;SDS011;5282;47.052;15.458;2022-11-15T12:20:27;37.50;;;25.90;;
10469;SDS011;5282;47.052;15.458;2022-11-15T12:22:59;35.43;;;26.03;;
10469;SDS011;5282;47.052;15.458;2022-11-15T12:25:33;36.43;;;25.73;;
10469;SDS011;5282;47.052;15.458;2022-11-15T12:28:11;36.53;;;25.60;;
10469;SDS011;5282;47.052;15.458;2022-11-15T12:30:45;37.57;;;25.63;;
10469;SDS011;5282;47.052;15.458;2022-11-15T12:33:30;39.33;;;26.73;;
10469;SDS011;5282;47.052;15.458;2022-11-15T12:35:59;37.37;;;25.73;;
10469;SDS011;5282;47.052;15.458;2022-11-15T12:41:20;38.73;;;27.27;;
10469;SDS011;5282;47.052;15.458;2022-11-15T12:43:49;39.70;;;25.27;;
10469;SDS011;5282;47.052;15.458;2022-11-15T12:46:20;37.67;;;25.37;;
10469;SDS011;5282;47.052;15.458;2022-11-15T12:48:50;40.13;;;26.43;;
10469;SDS011;5282;47.052;15.458;2022-11-15T12:52:02;36.23;;;26.23;;
10469;SDS011;5282;47.052;15.458;2022-11-15T12:57:51;31.60;;;23.73;;
10469;SDS011;5282;47.052;15.458;2022-11-15T13:00:36;37.00;;;25.17;;
10469;SDS011;5282;47.052;15.458;2022-11-15T13:05:59;30.60;;;22.67;;
10469;SDS011;5282;47.052;15.458;2022-11-15T13:08:42;31.57;;;23.23;;
10469;SDS011;5282;47.052;15.458;2022-11-15T13:14:39;32.77;;;23.67;;
10469;SDS011;5282;47.052;15.458;2022-11-15T13:20:23;32.87;;;23.57;;
10469;SDS011;5282;47.052;15.458;2022-11-15T13:22:59;31.20;;;23.17;;
10469;SDS011;5282;47.052;15.458;2022-11-15T13:28:42;29.50;;;22.90;;
10469;SDS011;5282;47.052;15.458;2022-11-15T13:34:03;27.17;;;22.07;;
10469;SDS011;5282;47.052;15.458;2022-11-15T13:36:44;28.53;;;21.83;;
10469;SDS011;5282;47.052;15.458;2022-11-15T13:39:12;28.60;;;21.40;;
10469;SDS011;5282;47.052;15.458;2022-11-15T13:41:51;27.50;;;21.07;;
10469;SDS011;5282;47.052;15.458;2022-11-15T13:44:19;27.77;;;22.17;;
10469;SDS011;5282;47.052;15.458;2022-11-15T13:46:49;28.43;;;22.00;;
10469;SDS011;5282;47.052;15.458;2022-11-15T13:49:28;28.43;;;21.70;;
10469;SDS011;5282;47.052;15.458;2022-11-15T13:51:56;27.90;;;21.80;;
10469;SDS011;5282;47.052;15.458;2022-11-15T13:54:24;25.90;;;20.90;;
10469;SDS011;5282;47.052;15.458;2022-11-15T13:56:55;25.97;;;20.80;;
10469;SDS011;5282;47.052;15.458;2022-11-15T13:59:26;25.20;;;20.27;;
10469;SDS011;5282;47.052;15.458;2022-11-15T14:01:56;25.73;;;20.53;;
10469;SDS011;5282;47.052;15.458;2022-11-15T14:04:26;26.97;;;20.93;;
10469;SDS011;5282;47.052;15.458;2022-11-15T14:06:59;28.83;;;20.07;;
10469;SDS011;5282;47.052;15.458;2022-11-15T14:09:32;23.47;;;20.03;;
10469;SDS011;5282;47.052;15.458;2022-11-15T14:12:02;25.80;;;20.57;;
10469;SDS011;5282;47.052;15.458;2022-11-15T14:14:48;29.27;;;20.30;;
10469;SDS011;5282;47.052;15.458;2022-11-15T14:17:19;27.47;;;20.40;;
10469;SDS011;5282;47.052;15.458;2022-11-15T14:19:48;27.60;;;20.73;;
10469;SDS011;5282;47.052;15.458;2022-11-15T14:22:18;23.30;;;19.70;;
10469;SDS011;5282;47.052;15.458;2022-11-15T14:24:55;24.73;;;19.90;;
10469;SDS011;5282;47.052;15.458;2022-11-15T14:27:39;24.40;;;19.93;;
10469;SDS011;5282;47.052;15.458;2022-11-15T14:30:07;25.63;;;20.63;;
10469;SDS011;5282;47.052;15.458;2022-11-15T14:32:42;35.07;;;26.40;;
10469;SDS011;5282;47.052;15.458;2022-11-15T14:35:12;35.83;;;27.47;;
10469;SDS011;5282;47.052;15.458;2022-11-15T14:37:41;25.20;;;19.73;;
10469;SDS011;5282;47.052;15.458;2022-11-15T14:40:08;24.07;;;19.57;;
10469;SDS011;5282;47.052;15.458;2022-11-15T14:42:39;21.83;;;19.27;;
10469;SDS011;5282;47.052;15.458;2022-11-15T14:45:08;24.67;;;20.83;;
10469;SDS011;5282;47.052;15.458;2022-11-15T14:47:38;21.03;;;18.77;;
10469;SDS011;5282;47.052;15.458;2022-11-15T14:50:10;24.83;;;20.27;;
10469;SDS011;5282;47.052;15.458;2022-11-15T14:52:40;20.70;;;18.27;;
10469;SDS011;5282;47.052;15.458;2022-11-15T14:55:13;22.57;;;17.70;;
10469;SDS011;5282;47.052;15.458;2022-11-15T14:57:43;21.00;;;18.20;;
10469;SDS011;5282;47.052;15.458;2022-11-15T15:00:11;22.63;;;18.47;;
10469;SDS011;5282;47.052;15.458;2022-11-15T15:02:39;25.73;;;19.30;;
10469;SDS011;5282;47.052;15.458;2022-11-15T15:05:14;24.67;;;18.57;;
10469;SDS011;5282;47.052;15.458;2022-11-15T15:07:43;23.10;;;19.23;;